createdAt,value
2019-05-20T00:01:01.634Z,13.40
2019-05-20T00:03:33.536Z,13.40
2019-05-20T00:06:05.897Z,13.40
2019-05-20T00:08:38.154Z,13.60
2019-05-20T00:11:10.146Z,13.70
2019-05-20T00:13:42.497Z,13.70
2019-05-20T00:16:14.545Z,13.60
2019-05-20T00:18:46.850Z,13.60
2019-05-20T00:21:18.709Z,13.50
2019-05-20T00:23:50.959Z,13.60
2019-05-20T00:26:22.813Z,13.70
2019-05-20T00:28:54.996Z,13.60
2019-05-20T00:31:26.968Z,13.50
2019-05-20T00:33:59.519Z,13.60
2019-05-20T00:36:31.727Z,13.70
2019-05-20T00:39:20.206Z,13.80
2019-05-20T00:41:52.070Z,13.70
2019-05-20T00:44:24.044Z,13.80
2019-05-20T00:46:55.885Z,13.90
2019-05-20T00:49:28.041Z,14.10
2019-05-20T00:51:59.896Z,14.00
2019-05-20T00:54:32.060Z,14.00
2019-05-20T00:57:04.292Z,14.20
2019-05-20T00:59:36.555Z,14.20
2019-05-20T01:02:09.129Z,14.30
2019-05-20T01:04:41.416Z,14.40
2019-05-20T01:07:13.255Z,14.60
2019-05-20T01:09:45.518Z,14.60
2019-05-20T01:12:17.644Z,14.60
2019-05-20T01:14:49.536Z,14.60
2019-05-20T01:17:21.483Z,14.60
2019-05-20T01:19:53.636Z,14.70
2019-05-20T01:22:25.468Z,14.30
2019-05-20T01:24:57.674Z,14.30
2019-05-20T01:27:29.596Z,14.30
2019-05-20T01:30:01.699Z,14.30
2019-05-20T01:32:33.906Z,14.40
2019-05-20T01:35:06.630Z,14.10
2019-05-20T01:37:38.589Z,14.30
2019-05-20T01:40:11.197Z,14.30
2019-05-20T01:42:43.772Z,14.30
2019-05-20T01:45:16.766Z,14.20
2019-05-20T01:47:48.896Z,14.20
2019-05-20T01:50:20.882Z,14.20
2019-05-20T01:52:52.734Z,14.30
2019-05-20T01:55:24.950Z,14.60
2019-05-20T01:57:58.229Z,14.50
2019-05-20T02:00:30.741Z,14.60
2019-05-20T02:03:02.598Z,14.80
2019-05-20T02:05:35.052Z,14.80
2019-05-20T02:08:07.076Z,14.90
2019-05-20T02:10:38.996Z,14.70
2019-05-20T02:13:11.159Z,14.80
2019-05-20T02:15:53.119Z,14.70
2019-05-20T02:18:25.323Z,14.60
2019-05-20T02:20:57.579Z,14.70
2019-05-20T02:23:29.852Z,14.60
2019-05-20T02:26:01.752Z,14.50
2019-05-20T02:28:33.854Z,14.50
2019-05-20T02:31:05.784Z,14.30
2019-05-20T02:33:50.756Z,14.20
2019-05-20T02:36:11.237Z,14.30
2019-05-20T02:38:43.103Z,14.50
2019-05-20T02:41:15.687Z,14.50
2019-05-20T02:43:47.542Z,14.60
2019-05-20T02:46:19.470Z,14.60
2019-05-20T02:48:51.309Z,14.60
2019-05-20T02:51:32.896Z,14.70
2019-05-20T02:54:04.740Z,14.70
2019-05-20T02:56:36.633Z,14.70
2019-05-20T02:59:08.450Z,14.50
2019-05-20T03:01:40.606Z,14.50
2019-05-20T03:04:13.211Z,14.40
2019-05-20T03:06:45.237Z,14.20
2019-05-20T03:09:17.514Z,14.20
2019-05-20T03:11:49.404Z,14.20
2019-05-20T03:14:21.233Z,14.20
2019-05-20T03:16:53.383Z,14.30
2019-05-20T03:19:25.924Z,14.30
2019-05-20T03:21:58.355Z,14.10
2019-05-20T03:24:30.202Z,14.10
2019-05-20T03:27:02.096Z,14.10
2019-05-20T03:29:33.924Z,14.10
2019-05-20T03:32:05.800Z,14.10
2019-05-20T03:34:46.696Z,13.90
2019-05-20T03:37:11.229Z,14.00
2019-05-20T03:39:43.086Z,13.90
2019-05-20T03:42:15.048Z,14.30
2019-05-20T03:44:47.156Z,14.30
2019-05-20T03:47:19.339Z,14.20
2019-05-20T03:49:51.436Z,14.00
2019-05-20T03:52:23.495Z,14.20
2019-05-20T03:54:55.355Z,14.40
2019-05-20T03:57:27.263Z,14.20
2019-05-20T03:59:59.367Z,14.20
2019-05-20T04:02:31.343Z,14.20
2019-05-20T04:05:03.689Z,14.10
2019-05-20T04:07:35.620Z,14.20
2019-05-20T04:10:08.213Z,14.00
2019-05-20T04:12:40.135Z,14.00
2019-05-20T04:15:12.421Z,14.10
2019-05-20T04:17:44.327Z,14.30
2019-05-20T04:20:16.705Z,14.40
2019-05-20T04:22:48.981Z,14.50
2019-05-20T04:25:20.841Z,14.60
2019-05-20T04:27:52.850Z,14.70
2019-05-20T04:30:24.745Z,14.90
2019-05-20T04:32:56.750Z,14.90
2019-05-20T04:35:28.994Z,15.00
2019-05-20T04:38:03.556Z,15.00
2019-05-20T04:40:35.792Z,15.10
2019-05-20T04:43:07.996Z,15.00
2019-05-20T04:45:39.861Z,15.00
2019-05-20T04:48:13.807Z,15.10
2019-05-20T04:50:46.059Z,15.00
2019-05-20T04:53:18.241Z,15.30
2019-05-20T04:55:50.676Z,15.10
2019-05-20T04:58:22.877Z,15.20
2019-05-20T05:00:59.479Z,15.00
2019-05-20T05:03:31.398Z,14.90
2019-05-20T05:06:03.915Z,15.10
2019-05-20T05:08:35.859Z,15.30
2019-05-20T05:11:09.514Z,15.30
2019-05-20T05:13:41.632Z,15.40
2019-05-20T05:16:55.861Z,15.50
2019-05-20T05:19:46.839Z,15.60
2019-05-20T05:22:22.595Z,15.50
2019-05-20T05:24:55.232Z,15.30
2019-05-20T05:27:27.128Z,15.20
2019-05-20T05:29:59.360Z,15.20
2019-05-20T05:32:44.394Z,15.20
2019-05-20T05:35:17.841Z,15.40
2019-05-20T05:37:49.780Z,15.40
2019-05-20T05:40:26.426Z,15.50
2019-05-20T05:42:58.287Z,15.50
2019-05-20T05:45:34.375Z,15.50
2019-05-20T05:48:06.849Z,15.70
2019-05-20T05:50:39.406Z,15.80
2019-05-20T05:53:11.898Z,15.90
2019-05-20T05:55:48.103Z,15.60
2019-05-20T05:58:20.232Z,15.50
2019-05-20T06:00:52.730Z,15.60
2019-05-20T06:03:25.003Z,16.00
2019-05-20T06:06:11.331Z,16.20
2019-05-20T06:08:31.207Z,16.20
2019-05-20T06:11:03.446Z,16.20
2019-05-20T06:13:35.737Z,16.20
2019-05-20T06:16:07.638Z,16.30
2019-05-20T06:18:39.792Z,16.50
2019-05-20T06:21:11.718Z,16.40
2019-05-20T06:23:43.569Z,16.30
2019-05-20T06:26:15.811Z,16.50
2019-05-20T06:28:47.668Z,16.40
2019-05-20T06:31:20.763Z,16.40
2019-05-20T06:33:52.610Z,16.40
2019-05-20T06:36:27.254Z,16.30
2019-05-20T06:39:14.830Z,16.40
2019-05-20T06:41:47.160Z,16.30
2019-05-20T06:44:19.071Z,16.40
2019-05-20T06:46:51.359Z,16.40
2019-05-20T06:49:23.216Z,16.50
2019-05-20T06:51:55.412Z,16.70
2019-05-20T06:54:27.250Z,16.40
2019-05-20T06:56:59.657Z,16.60
2019-05-20T06:59:31.828Z,16.80
2019-05-20T07:02:03.831Z,16.90
2019-05-20T07:04:35.945Z,16.80
2019-05-20T07:07:20.327Z,16.90
2019-05-20T07:09:42.415Z,17.00
2019-05-20T07:12:14.315Z,17.40
2019-05-20T07:14:46.200Z,17.50
2019-05-20T07:17:18.215Z,16.90
2019-05-20T07:19:57.959Z,17.40
2019-05-20T07:22:31.172Z,17.60
2019-05-20T07:25:04.532Z,17.60
2019-05-20T07:27:42.653Z,17.70
2019-05-20T07:30:15.661Z,17.50
2019-05-20T07:32:47.798Z,17.40
2019-05-20T07:35:29.367Z,17.80
2019-05-20T07:37:53.782Z,17.90
2019-05-20T07:40:33.677Z,17.60
2019-05-20T07:43:06.322Z,17.40
2019-05-20T07:45:38.308Z,17.40
2019-05-20T07:48:10.226Z,17.60
2019-05-20T07:50:42.696Z,17.50
2019-05-20T07:53:15.438Z,17.50
2019-05-20T07:56:03.568Z,17.50
2019-05-20T07:58:37.611Z,17.60
2019-05-20T08:01:09.450Z,17.80
2019-05-20T08:03:41.334Z,17.50
2019-05-20T08:06:13.458Z,17.10
2019-05-20T08:08:45.686Z,17.00
2019-05-20T08:11:17.527Z,16.80
2019-05-20T08:13:49.524Z,16.80
2019-05-20T08:16:21.616Z,16.80
2019-05-20T08:18:53.537Z,17.00
2019-05-20T08:21:25.768Z,17.10
2019-05-20T08:23:57.643Z,17.00
2019-05-20T08:26:30.169Z,16.90
2019-05-20T08:29:03.038Z,17.20
2019-05-20T08:31:34.889Z,17.00
2019-05-20T08:34:06.766Z,17.00
2019-05-20T08:36:39.365Z,16.80
2019-05-20T08:39:11.258Z,16.80
2019-05-20T08:41:43.148Z,16.70
2019-05-20T08:44:15.303Z,16.50
2019-05-20T08:46:47.163Z,16.70
2019-05-20T08:49:19.022Z,16.80
2019-05-20T08:51:51.289Z,16.30
2019-05-20T08:54:23.230Z,16.60
2019-05-20T08:56:55.125Z,16.40
2019-05-20T08:59:27.067Z,16.50
2019-05-20T09:01:59.395Z,16.30
2019-05-20T09:04:31.612Z,16.20
2019-05-20T09:07:03.571Z,16.40
2019-05-20T09:09:36.121Z,16.30
2019-05-20T09:12:08.215Z,16.40
2019-05-20T09:14:40.726Z,16.60
2019-05-20T09:17:12.727Z,16.80
2019-05-20T09:19:47.010Z,17.20
2019-05-20T09:22:18.280Z,17.40
2019-05-20T09:24:50.868Z,17.70
2019-05-20T09:27:23.065Z,18.20
2019-05-20T09:29:55.130Z,18.40
2019-05-20T09:32:27.077Z,18.40
2019-05-20T09:34:59.301Z,18.40
2019-05-20T09:37:31.200Z,18.40
2019-05-20T09:40:03.134Z,18.60
2019-05-20T09:42:35.370Z,18.90
2019-05-20T09:45:07.652Z,18.90
2019-05-20T09:47:39.521Z,19.20
2019-05-20T09:50:11.522Z,19.10
2019-05-20T09:52:43.768Z,19.50
2019-05-20T09:55:15.637Z,19.60
2019-05-20T09:57:47.465Z,19.20
2019-05-20T10:00:19.477Z,19.00
2019-05-20T10:02:51.308Z,19.00
2019-05-20T10:05:23.179Z,18.90
2019-05-20T10:07:55.272Z,18.80
2019-05-20T10:10:27.203Z,18.50
2019-05-20T10:12:59.101Z,18.30
2019-05-20T10:15:32.164Z,18.50
2019-05-20T10:18:04.546Z,18.60
2019-05-20T10:20:36.913Z,18.20
2019-05-20T10:23:09.361Z,18.20
2019-05-20T10:25:41.783Z,18.10
2019-05-20T10:28:15.200Z,18.10
2019-05-20T10:30:47.780Z,18.30
2019-05-20T10:33:19.613Z,17.60
2019-05-20T10:35:51.483Z,18.00
2019-05-20T10:38:23.890Z,18.00
2019-05-20T10:40:55.858Z,18.30
2019-05-20T10:43:28.277Z,18.10
2019-05-20T10:46:00.467Z,18.20
2019-05-20T10:48:32.801Z,18.20
2019-05-20T10:51:04.773Z,18.40
2019-05-20T10:53:36.668Z,18.10
2019-05-20T10:56:09.389Z,18.00
2019-05-20T10:58:41.689Z,17.80
2019-05-20T11:01:13.867Z,17.70
2019-05-20T11:03:46.167Z,17.90
2019-05-20T11:06:19.406Z,17.90
2019-05-20T11:08:51.724Z,18.10
2019-05-20T11:11:24.304Z,17.90
2019-05-20T11:13:56.478Z,18.10
2019-05-20T11:16:28.368Z,18.00
2019-05-20T11:19:00.249Z,17.80
2019-05-20T11:21:32.674Z,17.90
2019-05-20T11:24:04.682Z,17.70
2019-05-20T11:26:37.201Z,17.40
2019-05-20T11:29:09.062Z,17.50
2019-05-20T11:31:41.435Z,17.40
2019-05-20T11:34:13.583Z,17.30
2019-05-20T11:36:45.528Z,17.00
2019-05-20T11:39:31.313Z,16.80
2019-05-20T11:41:54.239Z,16.60
2019-05-20T11:44:24.802Z,16.40
2019-05-20T11:46:57.025Z,16.20
2019-05-20T11:49:29.457Z,16.20
2019-05-20T11:52:01.439Z,15.90
2019-05-20T11:54:33.291Z,15.90
2019-05-20T11:57:06.421Z,16.10
2019-05-20T11:59:38.314Z,16.10
2019-05-20T12:02:10.663Z,16.10
2019-05-20T12:04:43.465Z,16.10
2019-05-20T12:07:15.434Z,16.00
2019-05-20T12:09:50.110Z,15.80
2019-05-20T12:12:22.515Z,15.60
2019-05-20T12:14:54.782Z,15.80
2019-05-20T12:17:27.402Z,16.10
2019-05-20T12:19:59.239Z,15.60
2019-05-20T12:22:31.720Z,15.40
2019-05-20T12:25:03.665Z,15.60
2019-05-20T12:27:35.537Z,15.30
2019-05-20T12:30:08.628Z,15.30
2019-05-20T12:32:41.667Z,15.30
2019-05-20T12:35:13.641Z,15.30
2019-05-20T12:37:45.923Z,15.20
2019-05-20T12:40:18.385Z,14.90
2019-05-20T12:42:50.553Z,15.20
2019-05-20T12:45:22.757Z,15.20
2019-05-20T12:47:54.675Z,15.30
2019-05-20T12:50:26.551Z,15.40
2019-05-20T12:52:58.789Z,15.30
2019-05-20T12:55:30.932Z,15.30
2019-05-20T12:58:02.830Z,15.30
2019-05-20T13:00:34.651Z,15.30
2019-05-20T13:03:06.967Z,15.60
2019-05-20T13:05:38.811Z,15.60
2019-05-20T13:08:11.150Z,15.80
2019-05-20T13:10:42.960Z,15.80
2019-05-20T13:13:15.164Z,15.80
2019-05-20T13:15:47.739Z,16.00
2019-05-20T13:18:19.641Z,16.20
2019-05-20T13:20:51.513Z,16.40
2019-05-20T13:23:23.932Z,16.50
2019-05-20T13:25:56.108Z,16.30
2019-05-20T13:28:27.972Z,16.20
2019-05-20T13:31:00.123Z,16.40
2019-05-20T13:33:32.088Z,16.70
2019-05-20T13:36:04.055Z,16.80
2019-05-20T13:38:35.992Z,16.90
2019-05-20T13:41:08.123Z,16.80
2019-05-20T13:43:40.550Z,16.90
2019-05-20T13:46:12.719Z,16.80
2019-05-20T13:48:44.913Z,16.70
2019-05-20T13:51:17.110Z,16.80
2019-05-20T13:53:50.256Z,16.80
2019-05-20T13:56:22.362Z,17.10
2019-05-20T13:58:54.256Z,17.20
2019-05-20T14:01:26.083Z,17.10
2019-05-20T14:03:58.071Z,17.20
2019-05-20T14:06:30.277Z,17.10
2019-05-20T14:09:07.302Z,17.10
2019-05-20T14:11:37.332Z,17.30
2019-05-20T14:14:09.773Z,17.00
2019-05-20T14:16:41.977Z,17.20
2019-05-20T14:19:14.255Z,17.00
2019-05-20T14:21:46.421Z,17.10
2019-05-20T14:24:18.301Z,17.10
2019-05-20T14:26:50.150Z,17.00
2019-05-20T14:29:22.071Z,17.00
2019-05-20T14:31:53.975Z,17.10
2019-05-20T14:34:26.444Z,17.30
2019-05-20T14:36:58.844Z,17.30
2019-05-20T14:39:30.724Z,17.40
2019-05-20T14:42:02.589Z,17.20
2019-05-20T14:44:34.553Z,17.10
2019-05-20T14:47:06.404Z,17.00
2019-05-20T14:49:39.151Z,16.90
2019-05-20T14:52:11.699Z,17.20
2019-05-20T14:54:43.616Z,17.50
2019-05-20T14:57:16.266Z,17.50
2019-05-20T14:59:48.234Z,17.60
2019-05-20T15:02:20.105Z,17.80
2019-05-20T15:04:51.999Z,17.70
2019-05-20T15:07:29.931Z,17.70
2019-05-20T15:09:57.854Z,17.60
2019-05-20T15:12:31.650Z,17.50
2019-05-20T15:15:03.846Z,17.50
2019-05-20T15:17:36.343Z,17.60
2019-05-20T15:20:08.886Z,17.50
2019-05-20T15:22:41.011Z,17.40
2019-05-20T15:25:13.810Z,17.20
2019-05-20T15:27:49.715Z,17.30
2019-05-20T15:30:20.289Z,17.30
2019-05-20T15:32:54.757Z,17.10
2019-05-20T15:35:26.745Z,16.90
2019-05-20T15:37:58.957Z,16.70
2019-05-20T15:40:30.854Z,16.70
2019-05-20T15:43:03.291Z,16.70
2019-05-20T15:45:35.289Z,16.40
2019-05-20T15:48:07.934Z,16.40
2019-05-20T15:50:39.971Z,16.60
2019-05-20T15:53:13.390Z,16.50
2019-05-20T15:55:45.604Z,16.50
2019-05-20T15:58:18.034Z,16.40
2019-05-20T16:00:50.295Z,16.60
2019-05-20T16:03:22.151Z,16.80
2019-05-20T16:05:54.919Z,16.70
2019-05-20T16:08:27.432Z,16.40
2019-05-20T16:10:59.668Z,16.30
2019-05-20T16:13:31.550Z,16.20
2019-05-20T16:16:03.444Z,16.20
2019-05-20T16:18:35.685Z,16.10
2019-05-20T16:21:07.679Z,16.20
2019-05-20T16:23:39.818Z,16.20
2019-05-20T16:26:12.388Z,16.10
2019-05-20T16:28:44.750Z,15.90
2019-05-20T16:31:17.217Z,15.80
2019-05-20T16:33:49.402Z,15.60
2019-05-20T16:36:22.133Z,15.70
2019-05-20T16:38:54.395Z,15.60
2019-05-20T16:41:27.151Z,15.60
2019-05-20T16:43:59.313Z,15.50
2019-05-20T16:46:31.727Z,15.50
2019-05-20T16:49:04.103Z,15.40
2019-05-20T16:51:36.775Z,15.40
2019-05-20T16:54:09.555Z,15.50
2019-05-20T16:56:41.751Z,15.40
2019-05-20T16:59:14.817Z,15.10
2019-05-20T17:01:47.393Z,15.20
2019-05-20T17:04:19.270Z,15.00
2019-05-20T17:06:52.396Z,15.00
2019-05-20T17:09:24.617Z,14.80
2019-05-20T17:11:57.114Z,14.70
2019-05-20T17:14:33.055Z,14.60
2019-05-20T17:17:05.351Z,14.50
2019-05-20T17:19:37.216Z,14.50
2019-05-20T17:22:10.428Z,14.50
2019-05-20T17:24:42.956Z,14.50
2019-05-20T17:27:15.493Z,14.70
2019-05-20T17:29:47.801Z,14.80
2019-05-20T17:32:20.749Z,14.80
2019-05-20T17:34:53.085Z,14.80
2019-05-20T17:37:25.993Z,14.80
2019-05-20T17:40:00.085Z,14.70
2019-05-20T17:42:33.066Z,14.80
2019-05-20T17:45:05.091Z,14.90
2019-05-20T17:47:37.506Z,14.70
2019-05-20T17:50:10.949Z,14.80
2019-05-20T17:52:42.972Z,14.80
2019-05-20T17:55:15.531Z,14.70
2019-05-20T17:57:47.774Z,14.70
2019-05-20T18:00:22.386Z,14.70
2019-05-20T18:02:54.637Z,14.40
2019-05-20T18:05:26.974Z,14.30
2019-05-20T18:08:00.526Z,14.40
2019-05-20T18:10:32.859Z,14.40
2019-05-20T18:13:04.740Z,14.20
2019-05-20T18:15:36.596Z,14.30
2019-05-20T18:18:08.957Z,14.40
2019-05-20T18:20:41.162Z,14.50
2019-05-20T18:23:13.069Z,14.60
2019-05-20T18:25:45.099Z,14.70
2019-05-20T18:28:17.529Z,14.60
2019-05-20T18:30:50.162Z,14.50
2019-05-20T18:33:22.247Z,14.60
2019-05-20T18:35:54.656Z,14.70
2019-05-20T18:38:27.185Z,14.80
2019-05-20T18:40:59.427Z,14.70
2019-05-20T18:43:32.029Z,14.90
2019-05-20T18:46:04.358Z,14.70
2019-05-20T18:48:36.817Z,14.70
2019-05-20T18:51:09.113Z,14.50
2019-05-20T18:53:41.268Z,14.40
2019-05-20T18:56:13.146Z,14.50
2019-05-20T18:58:45.071Z,14.40
2019-05-20T19:01:19.564Z,14.20
2019-05-20T19:03:51.669Z,14.10
2019-05-20T19:06:23.933Z,14.00
2019-05-20T19:08:56.082Z,14.20
2019-05-20T19:11:29.350Z,14.10
2019-05-20T19:14:02.043Z,13.90
2019-05-20T19:16:34.730Z,13.70
2019-05-20T19:19:07.067Z,13.70
2019-05-20T19:21:39.236Z,13.80
2019-05-20T19:24:11.457Z,13.70
2019-05-20T19:26:43.794Z,13.70
2019-05-20T19:29:16.080Z,13.60
2019-05-20T19:32:00.863Z,13.70
2019-05-20T19:34:22.070Z,13.90
2019-05-20T19:36:53.959Z,13.80
2019-05-20T19:39:26.981Z,13.70
2019-05-20T19:41:59.224Z,14.00
2019-05-20T19:44:31.506Z,13.90
2019-05-20T19:47:03.738Z,13.80
2019-05-20T19:49:36.198Z,14.00
2019-05-20T19:52:08.145Z,13.90
2019-05-20T19:54:40.127Z,13.90
2019-05-20T19:57:12.998Z,13.90
2019-05-20T19:59:45.009Z,14.00
2019-05-20T20:02:18.142Z,14.00
2019-05-20T20:04:50.598Z,13.90
2019-05-20T20:07:22.762Z,14.00
2019-05-20T20:09:54.963Z,14.10
2019-05-20T20:12:27.212Z,14.30
2019-05-20T20:15:02.722Z,14.20
2019-05-20T20:17:35.210Z,14.10
2019-05-20T20:20:07.123Z,14.10
2019-05-20T20:22:39.556Z,14.20
2019-05-20T20:25:11.879Z,14.20
2019-05-20T20:27:43.753Z,14.30
2019-05-20T20:30:16.525Z,14.30
2019-05-20T20:32:48.638Z,14.00
2019-05-20T20:35:20.903Z,14.20
2019-05-20T20:37:53.399Z,14.10
2019-05-20T20:40:25.708Z,14.10
2019-05-20T20:42:58.931Z,13.90
2019-05-20T20:45:31.096Z,14.00
2019-05-20T20:48:03.242Z,13.90
2019-05-20T20:50:37.283Z,13.90
2019-05-20T20:53:09.541Z,14.00
2019-05-20T20:55:41.851Z,13.80
2019-05-20T20:58:14.186Z,13.60
2019-05-20T21:00:46.383Z,13.60
2019-05-20T21:03:18.702Z,13.90
2019-05-20T21:05:50.871Z,13.90
2019-05-20T21:08:22.969Z,13.90
2019-05-20T21:10:55.302Z,13.90
2019-05-20T21:13:27.839Z,14.00
2019-05-20T21:16:00.104Z,13.90
2019-05-20T21:18:32.063Z,14.00
2019-05-20T21:21:04.000Z,14.00
2019-05-20T21:23:38.020Z,13.90
2019-05-20T21:26:10.130Z,13.90
2019-05-20T21:28:42.687Z,13.70
2019-05-20T21:31:15.016Z,13.80
2019-05-20T21:33:48.994Z,13.60
2019-05-20T21:36:21.171Z,13.60
2019-05-20T21:38:53.395Z,13.70
2019-05-20T21:41:25.925Z,13.70
2019-05-20T21:43:58.265Z,13.60
2019-05-20T21:46:30.431Z,13.30
2019-05-20T21:49:02.424Z,13.50
2019-05-20T21:51:34.615Z,13.50
2019-05-20T21:54:06.799Z,13.50
2019-05-20T21:56:39.150Z,13.50
2019-05-20T21:59:11.354Z,13.50
2019-05-20T22:01:43.970Z,13.40
2019-05-20T22:04:17.075Z,13.40
2019-05-20T22:06:49.766Z,13.40
2019-05-20T22:09:22.312Z,13.50
2019-05-20T22:11:54.492Z,13.40
2019-05-20T22:14:27.108Z,13.50
2019-05-20T22:16:59.358Z,13.70
2019-05-20T22:19:31.477Z,13.50
2019-05-20T22:22:16.979Z,13.70
2019-05-20T22:24:49.110Z,13.60
2019-05-20T22:27:21.066Z,13.50
2019-05-20T22:29:52.934Z,13.40
2019-05-20T22:32:24.843Z,13.30
2019-05-20T22:34:56.691Z,13.40
2019-05-20T22:37:28.639Z,13.50
2019-05-20T22:40:00.771Z,13.60
2019-05-20T22:42:33.594Z,13.80
2019-05-20T22:45:07.472Z,13.50
2019-05-20T22:47:39.752Z,13.50
2019-05-20T22:50:12.132Z,13.40
2019-05-20T22:52:44.002Z,13.40
2019-05-20T22:55:15.858Z,13.50
2019-05-20T22:57:47.793Z,13.30
2019-05-20T23:00:20.740Z,13.30
2019-05-20T23:02:53.002Z,13.30
2019-05-20T23:05:25.478Z,13.50
2019-05-20T23:07:57.731Z,13.40
2019-05-20T23:10:29.937Z,13.30
2019-05-20T23:13:02.239Z,13.40
2019-05-20T23:15:34.134Z,13.40
2019-05-20T23:18:06.017Z,13.20
2019-05-20T23:20:37.869Z,13.30
2019-05-20T23:23:10.137Z,13.20
2019-05-20T23:25:42.037Z,13.30
2019-05-20T23:28:13.906Z,13.40
2019-05-20T23:30:45.756Z,13.30
2019-05-20T23:33:17.949Z,13.10
2019-05-20T23:35:50.068Z,13.00
2019-05-20T23:38:21.937Z,13.10
2019-05-20T23:40:53.824Z,13.00
2019-05-20T23:43:26.013Z,12.90
2019-05-20T23:45:58.150Z,12.90
2019-05-20T23:48:30.081Z,13.00
2019-05-20T23:51:01.920Z,12.90
2019-05-20T23:53:34.383Z,13.00
2019-05-20T23:56:06.271Z,13.00
2019-05-20T23:58:38.583Z,13.10
